Time;durP1;ratioP1;P1;durP2;ratioP2;P2;SDS_P1;SDS_P2;PMS_P1;PMS_P2;Temp;Humidity;BMP_temperature;BMP_pressure;BME280_temperature;BME280_humidity;BME280_pressure;Samples;Min_cycle;Max_cycle;Signal;HPM_P1;HPM_P2
2022/01/31 00:00:33;;;;;;;2.05;1.20;;;9.10;99.90;;;;;;5022359;28;39929;-77
2022/01/31 00:03:30;;;;;;;4.72;1.85;;;8.90;99.90;;;;;;5013150;28;20174;-77
2022/01/31 00:06:27;;;;;;;;;;;;;;;;;;;;;
2022/01/31 00:09:26;;;;;;;;;;;;;;;;;;;;;
2022/01/31 00:12:12;;;;;;;5.75;2.15;;;8.80;99.90;;;;;;5034704;28;42137;-77
2022/01/31 00:15:10;;;;;;;;;;;;;;;;;;;;;
2022/01/31 00:18:06;;;;;;;5.07;2.10;;;8.00;99.90;;;;;;5032366;28;42951;-76
2022/01/31 00:20:54;;;;;;;6.57;2.25;;;9.10;99.90;;;;;;5032584;28;20060;-76
2022/01/31 00:23:46;;;;;;;5.85;1.83;;;9.30;99.90;;;;;;5016692;28;20258;-77
2022/01/31 00:26:42;;;;;;;9.27;2.42;;;8.60;99.90;;;;;;4994140;28;20089;-76
2022/01/31 00:29:18;;;;;;;2.15;1.08;;;7.70;99.90;;;;;;4969316;28;20081;-77
2022/01/31 00:31:50;;;;;;;6.00;1.95;;;8.40;99.90;;;;;;4979664;28;20038;-76
2022/01/31 00:37:29;;;;;;;6.22;2.22;;;7.40;99.90;;;;;;4982104;28;20050;-76
2022/01/31 00:40:11;;;;;;;8.52;2.03;;;7.80;99.90;;;;;;4995698;28;20105;-77
2022/01/31 00:43:12;;;;;;;8.60;2.13;;;7.50;99.90;;;;;;4980776;28;20166;-78
2022/01/31 00:45:58;;;;;;;12.82;3.40;;;7.40;99.90;;;;;;5004531;28;20089;-76
2022/01/31 00:48:49;;;;;;;4.35;2.28;;;7.70;99.90;;;;;;4998658;28;20915;-77
2022/01/31 00:51:25;;;;;;;6.35;2.38;;;9.20;99.90;;;;;;5005528;28;20278;-76
2022/01/31 00:54:41;;;;;;;10.52;2.00;;;7.60;99.90;;;;;;4998338;28;20038;-77
2022/01/31 00:57:24;;;;;;;7.40;2.00;;;7.60;99.90;;;;;;5031059;28;20080;-78
2022/01/31 00:59:58;;;;;;;7.15;1.88;;;5.90;99.90;;;;;;5051476;28;20044;-77
2022/01/31 01:02:32;;;;;;;5.47;1.83;;;7.50;99.90;;;;;;5087131;28;20051;-77
2022/01/31 01:05:03;;;;;;;9.82;1.65;;;7.70;99.90;;;;;;5064342;28;20519;-77
2022/01/31 01:07:47;;;;;;;4.47;2.33;;;7.70;99.90;;;;;;5063587;28;20169;-77
2022/01/31 01:10:41;;;;;;;6.80;2.30;;;8.10;99.90;;;;;;5079918;28;20040;-77
2022/01/31 01:13:17;;;;;;;5.32;1.67;;;7.60;99.90;;;;;;5062826;28;20039;-77
2022/01/31 01:15:51;;;;;;;3.55;1.52;;;7.90;99.90;;;;;;5065045;28;20055;-76
2022/01/31 01:18:22;;;;;;;5.78;1.38;;;7.40;99.90;;;;;;5068330;28;20045;-77
2022/01/31 01:21:00;;;;;;;7.65;1.55;;;7.00;99.90;;;;;;5059826;28;20043;-78
2022/01/31 01:23:37;;;;;;;4.90;1.77;;;8.50;99.90;;;;;;5069581;28;20095;-77
2022/01/31 01:26:12;;;;;;;7.35;1.98;;;6.10;99.90;;;;;;5093674;28;20625;-76
2022/01/31 01:28:56;;;;;;;4.45;1.40;;;7.50;99.90;;;;;;5078104;28;20534;-78
2022/01/31 01:31:30;;;;;;;10.68;1.85;;;6.50;99.90;;;;;;5074622;28;20137;-76
2022/01/31 01:34:39;;;;;;;6.05;2.17;;;6.60;99.90;;;;;;5083715;28;20048;-77
2022/01/31 01:37:40;;;;;;;2.45;1.40;;;6.90;99.90;;;;;;5089251;28;20045;-76
2022/01/31 01:41:00;;;;;;;5.50;2.28;;;7.70;99.90;;;;;;5082711;28;20140;-77
2022/01/31 01:44:09;;;;;;;;;;;;;;;;;;;;;
2022/01/31 01:47:14;;;;;;;3.30;1.38;;;6.40;99.90;;;;;;5065925;28;44369;-77
2022/01/31 01:50:17;;;;;;;2.83;1.40;;;7.80;99.90;;;;;;5071390;28;20602;-76
2022/01/31 01:57:21;;;;;;;;;;;;;;;;;;;;;
2022/01/31 02:04:21;;;;;;;10.90;1.85;;;6.90;99.90;;;;;;4945605;28;20584;-76
2022/01/31 02:10:06;;;;;;;2.47;2.00;;;8.00;99.90;;;;;;4990194;28;20141;-77
2022/01/31 02:13:16;;;;;;;1.25;1.00;;;7.70;99.90;;;;;;4988734;28;20097;-76
2022/01/31 02:16:29;;;;;;;3.85;1.45;;;7.60;99.90;;;;;;5036409;28;20543;-78
2022/01/31 02:19:13;;;;;;;5.78;2.85;;;7.40;99.90;;;;;;5004283;28;20052;-78
2022/01/31 02:22:30;;;;;;;5.10;1.58;;;8.20;99.90;;;;;;5049242;28;20053;-77
2022/01/31 02:25:41;;;;;;;2.08;1.75;;;7.10;99.90;;;;;;5068808;28;20434;-77
2022/01/31 02:29:25;;;;;;;4.53;1.20;;;8.30;99.90;;;;;;5093943;28;20035;-76
2022/01/31 02:32:22;;;;;;;3.58;1.27;;;7.60;99.90;;;;;;5036752;28;20573;-76
2022/01/31 02:35:11;;;;;;;9.52;1.95;;;7.50;99.90;;;;;;5088074;28;20087;-77
2022/01/31 02:38:39;;;;;;;;;;;;;;;;;;;;;
2022/01/31 02:41:56;;;;;;;5.40;1.73;;;7.60;99.90;;;;;;5094374;28;46193;-76
2022/01/31 02:45:09;;;;;;;;;;;;;;;;;;;;;
2022/01/31 02:47:52;;;;;;;;;;;;;;;;;;;;;
2022/01/31 02:50:37;;;;;;;7.00;2.75;;;8.30;99.90;;;;;;5092774;28;44283;-77
2022/01/31 02:53:32;;;;;;;9.90;2.10;;;7.30;99.90;;;;;;5080842;28;20123;-77
2022/01/31 02:56:44;;;;;;;6.75;1.35;;;8.40;99.90;;;;;;5068896;28;20037;-77
2022/01/31 02:59:36;;;;;;;;;;;;;;;;;;;;;
2022/01/31 03:02:30;;;;;;;2.38;1.30;;;7.60;99.90;;;;;;5094771;28;42772;-77
2022/01/31 03:05:34;;;;;;;10.77;1.83;;;8.30;99.90;;;;;;5031490;28;20072;-77
2022/01/31 03:08:38;;;;;;;3.65;1.20;;;7.70;99.90;;;;;;5015187;28;20048;-77
2022/01/31 03:12:00;;;;;;;5.07;1.83;;;5.90;99.90;;;;;;5015655;28;20101;-77
2022/01/31 03:15:04;;;;;;;;;;;;;;;;;;;;;
2022/01/31 03:17:53;;;;;;;8.60;2.15;;;8.40;99.90;;;;;;5020657;28;41880;-77
2022/01/31 03:27:40;;;;;;;6.65;1.48;;;9.00;99.90;;;;;;5025646;28;20057;-77
2022/01/31 03:40:30;;;;;;;6.20;1.80;;;8.20;99.90;;;;;;5088113;28;20045;-76
2022/01/31 03:43:24;;;;;;;3.65;1.98;;;7.70;99.90;;;;;;5089703;28;20523;-76
2022/01/31 03:52:21;;;;;;;2.38;1.60;;;6.10;99.90;;;;;;5047665;28;20082;-76
2022/01/31 03:55:14;;;;;;;3.72;1.63;;;6.10;99.90;;;;;;5087687;28;20049;-75
2022/01/31 03:58:25;;;;;;;;;;;8.90;99.90;;;;;;5072895;28;20055;-76
2022/01/31 04:04:14;;;;;;;10.73;1.45;;;5.90;99.90;;;;;;5080424;28;20067;-76
2022/01/31 04:14:08;;;;;;;;;;;;;;;;;;;;;
2022/01/31 04:17:37;;;;;;;9.15;1.65;;;6.70;99.90;;;;;;5094436;28;44856;-76
2022/01/31 04:20:57;;;;;;;;;;;;;;;;;;;;;
2022/01/31 04:23:46;;;;;;;3.35;1.15;;;7.70;99.90;;;;;;5048998;28;20550;-77
2022/01/31 04:26:45;;;;;;;4.50;1.30;;;8.00;99.90;;;;;;5074805;28;20068;-75
2022/01/31 04:32:52;;;;;;;4.15;2.10;;;7.10;99.90;;;;;;5091784;28;20079;-77
2022/01/31 04:36:17;;;;;;;;;;;;;;;;;;;;;
2022/01/31 04:38:58;;;;;;;1.13;0.82;;;7.70;99.90;;;;;;5021091;28;40386;-76
2022/01/31 04:42:04;;;;;;;4.25;1.10;;;7.70;99.90;;;;;;5020217;28;20099;-76
2022/01/31 04:48:35;;;;;;;1.40;1.10;;;7.70;99.90;;;;;;4992709;28;20054;-76
2022/01/31 04:51:15;;;;;;;1.75;1.20;;;7.60;99.90;;;;;;4976715;28;20055;-76
2022/01/31 04:54:08;;;;;;;6.38;1.15;;;6.50;99.90;;;;;;4987429;28;20081;-76
2022/01/31 05:00:13;;;;;;;3.72;1.05;;;8.00;99.90;;;;;;4977632;28;20081;-76
2022/01/31 05:03:41;;;;;;;;;;;;;;;;;;;;;
2022/01/31 05:07:06;;;;;;;2.10;1.23;;;7.50;99.90;;;;;;4992087;28;20508;-76
2022/01/31 05:10:01;;;;;;;2.60;1.20;;;7.50;99.90;;;;;;4981816;28;20050;-76
2022/01/31 05:13:09;;;;;;;5.63;1.10;;;7.40;99.90;;;;;;4976546;28;20572;-77
2022/01/31 05:16:32;;;;;;;2.20;1.25;;;7.60;99.90;;;;;;4982263;28;20073;-76
2022/01/31 05:19:03;;;;;;;;;;;8.00;99.90;;;;;;4997985;28;20496;-76
2022/01/31 05:25:45;;;;;;;1.30;0.68;;;7.00;99.90;;;;;;5037297;28;20149;-76
2022/01/31 05:28:30;;;;;;;;;;;;;;;;;;;;;
2022/01/31 05:31:28;;;;;;;3.05;0.75;;;8.70;99.90;;;;;;5074983;28;43371;-75
2022/01/31 05:37:31;;;;;;;2.47;0.82;;;8.20;99.90;;;;;;5058101;28;20048;-76
2022/01/31 05:40:35;;;;;;;6.63;2.15;;;8.40;99.90;;;;;;5072014;28;20048;-76
2022/01/31 05:43:42;;;;;;;1.08;0.68;;;9.30;99.90;;;;;;5057531;28;20205;-76
2022/01/31 05:46:20;;;;;;;1.08;0.77;;;8.70;99.90;;;;;;5039487;28;20691;-76
2022/01/31 05:49:14;;;;;;;3.58;1.98;;;6.50;99.90;;;;;;5038552;28;20087;-75
2022/01/31 05:52:04;;;;;;;2.90;1.25;;;8.30;99.90;;;;;;5034969;28;20119;-75
2022/01/31 05:55:30;;;;;;;3.08;1.95;;;8.20;99.90;;;;;;5020792;28;20053;-75
2022/01/31 05:58:22;;;;;;;5.80;1.88;;;8.20;99.90;;;;;;5041439;28;20053;-76
2022/01/31 06:01:13;;;;;;;;;;;6.70;99.90;;;;;;5025259;28;20136;-76
2022/01/31 06:04:19;;;;;;;4.93;3.47;;;8.00;99.90;;;;;;5052196;28;19921;-76
2022/01/31 06:07:11;;;;;;;5.45;1.50;;;7.90;99.90;;;;;;4999298;28;20133;-75
2022/01/31 06:10:22;;;;;;;5.40;1.07;;;7.90;99.90;;;;;;5000040;28;20132;-76
2022/01/31 06:12:55;;;;;;;1.10;0.60;;;7.10;99.90;;;;;;4999704;28;20591;-75
2022/01/31 06:19:33;;;;;;;1.52;1.13;;;8.50;99.90;;;;;;5006296;28;20162;-75
2022/01/31 06:22:22;;;;;;;2.50;1.23;;;7.80;99.90;;;;;;5000355;28;20054;-75
2022/01/31 06:25:15;;;;;;;4.47;1.17;;;8.10;99.90;;;;;;5014615;28;20042;-75
2022/01/31 06:28:24;;;;;;;8.73;1.70;;;8.60;99.90;;;;;;5017273;28;20539;-75
2022/01/31 06:31:47;;;;;;;3.08;1.17;;;7.90;99.90;;;;;;5012218;28;20141;-75
2022/01/31 06:35:17;;;;;;;9.13;1.15;;;6.90;99.90;;;;;;5014889;28;20563;-75
2022/01/31 06:38:35;;;;;;;1.02;0.93;;;9.70;99.90;;;;;;4975717;28;20050;-75
2022/01/31 06:41:51;;;;;;;6.95;1.20;;;7.30;99.90;;;;;;5061943;28;20048;-76
2022/01/31 06:44:50;;;;;;;8.48;0.90;;;8.00;99.90;;;;;;5074361;28;20044;-74
2022/01/31 06:47:53;;;;;;;5.32;1.77;;;8.40;99.90;;;;;;5066556;28;20059;-75
2022/01/31 06:50:41;;;;;;;2.72;0.70;;;7.80;99.90;;;;;;5041389;28;20052;-75
2022/01/31 06:53:55;;;;;;;2.72;1.00;;;6.80;99.90;;;;;;5033930;28;20037;-75
2022/01/31 06:56:46;;;;;;;10.32;2.40;;;7.60;99.90;;;;;;5037216;28;20098;-76
2022/01/31 06:59:33;;;;;;;4.82;1.67;;;8.70;99.90;;;;;;5040158;28;20069;-75
2022/01/31 07:02:30;;;;;;;3.03;1.15;;;8.20;99.90;;;;;;5061422;28;20029;-75
2022/01/31 07:05:22;;;;;;;1.38;0.70;;;7.60;99.90;;;;;;5040837;28;20668;-75
2022/01/31 07:08:07;;;;;;;1.67;1.50;;;7.90;99.90;;;;;;5033602;28;20052;-75
2022/01/31 07:11:00;;;;;;;1.70;1.00;;;7.50;99.90;;;;;;5049559;28;20531;-76
2022/01/31 07:13:39;;;;;;;1.35;1.08;;;7.70;99.90;;;;;;5026859;28;20062;-74
2022/01/31 07:16:19;;;;;;;4.47;1.08;;;6.30;99.90;;;;;;5040513;28;20139;-76
2022/01/31 07:18:59;;;;;;;5.90;2.17;;;8.20;99.90;;;;;;5046135;28;20689;-75
2022/01/31 07:21:47;;;;;;;2.67;1.52;;;5.80;99.90;;;;;;5047074;28;20479;-74
2022/01/31 07:24:47;;;;;;;5.05;1.45;;;7.20;99.90;;;;;;5056618;28;20043;-75
2022/01/31 07:30:40;;;;;;;1.45;1.35;;;8.10;99.90;;;;;;5059162;28;20488;-74
2022/01/31 07:33:18;;;;;;;4.60;1.48;;;8.10;99.90;;;;;;5042196;28;20565;-74
2022/01/31 07:36:08;;;;;;;2.72;1.45;;;8.30;99.90;;;;;;5057650;28;20478;-74
2022/01/31 07:39:03;;;;;;;3.42;1.30;;;7.40;99.90;;;;;;5057914;28;20511;-74
2022/01/31 07:41:42;;;;;;;0.52;0.52;;;7.50;99.90;;;;;;5037812;28;20614;-74
2022/01/31 07:44:35;;;;;;;3.00;0.75;;;8.00;99.90;;;;;;5052000;28;20432;-75
2022/01/31 07:47:38;;;;;;;3.17;0.98;;;7.90;99.90;;;;;;5031537;28;20061;-75
2022/01/31 07:50:12;;;;;;;8.25;1.33;;;7.60;99.90;;;;;;5046717;28;20621;-75
2022/01/31 07:52:43;;;;;;;2.08;1.17;;;7.40;99.90;;;;;;5055664;28;20531;-74
2022/01/31 07:55:12;;;;;;;4.13;1.15;;;7.40;99.90;;;;;;5063921;28;20045;-75
2022/01/31 07:57:41;;;;;;;6.75;1.45;;;7.40;99.90;;;;;;5048258;28;20140;-75
2022/01/31 08:00:08;;;;;;;9.32;1.48;;;8.40;99.90;;;;;;5048113;28;20045;-74
2022/01/31 08:02:34;;;;;;;4.13;1.20;;;8.20;99.90;;;;;;5073692;28;20041;-74
2022/01/31 08:05:00;;;;;;;2.67;1.13;;;6.40;99.90;;;;;;5047093;28;20060;-75
2022/01/31 08:07:29;;;;;;;1.65;0.65;;;7.60;99.90;;;;;;5077178;28;20110;-75
2022/01/31 08:10:00;;;;;;;5.35;1.02;;;8.00;99.90;;;;;;5052864;28;20044;-75
2022/01/31 08:12:36;;;;;;;1.88;1.58;;;7.60;99.90;;;;;;5053797;28;20652;-75
2022/01/31 08:15:14;;;;;;;1.85;0.60;;;6.90;99.90;;;;;;5051802;28;20072;-75
2022/01/31 08:17:42;;;;;;;2.40;0.95;;;7.80;99.90;;;;;;5052019;28;20080;-74
2022/01/31 08:20:14;;;;;;;0.73;0.57;;;7.00;99.90;;;;;;5072829;28;20468;-74
2022/01/31 08:22:40;;;;;;;;;;;7.60;99.90;;;;;;5073312;28;20051;-75
2022/01/31 08:25:13;;;;;;;2.80;0.95;;;8.50;99.90;;;;;;5067437;28;19920;-75
2022/01/31 08:27:45;;;;;;;1.38;0.73;;;8.00;99.90;;;;;;5075902;28;20123;-75
2022/01/31 08:30:16;;;;;;;6.40;1.85;;;8.70;99.90;;;;;;5051111;28;20037;-74
2022/01/31 08:32:59;;;;;;;6.38;1.52;;;8.40;99.90;;;;;;5049835;28;20053;-76
2022/01/31 08:38:16;;;;;;;7.45;2.53;;;7.90;99.90;;;;;;5066109;28;20045;-75
2022/01/31 08:40:45;;;;;;;4.28;1.40;;;8.00;99.90;;;;;;5073936;28;20522;-75
2022/01/31 08:43:18;;;;;;;2.97;1.45;;;7.80;99.90;;;;;;5053347;28;20055;-75
2022/01/31 08:45:49;;;;;;;4.03;2.35;;;9.50;99.90;;;;;;5051433;28;20152;-76
2022/01/31 08:48:18;;;;;;;4.45;1.15;;;8.60;99.90;;;;;;5080259;28;20635;-75
2022/01/31 08:50:49;;;;;;;3.33;1.08;;;8.40;99.90;;;;;;5078007;28;20657;-75
2022/01/31 08:53:20;;;;;;;3.90;1.75;;;8.60;99.90;;;;;;5060343;28;20044;-75
2022/01/31 08:55:54;;;;;;;7.30;1.30;;;7.80;99.90;;;;;;5075571;28;20040;-75
2022/01/31 08:58:25;;;;;;;1.60;1.08;;;7.70;99.90;;;;;;5058938;28;20500;-74
2022/01/31 09:00:59;;;;;;;5.07;1.40;;;6.50;99.90;;;;;;5058125;28;20063;-75
2022/01/31 09:06:02;;;;;;;4.78;1.33;;;7.60;99.90;;;;;;5082366;28;20041;-75
2022/01/31 09:08:30;;;;;;;0.35;0.35;;;8.10;99.90;;;;;;5054083;28;20184;-75
2022/01/31 09:11:02;;;;;;;3.88;1.75;;;8.60;99.90;;;;;;5056320;28;20507;-75
2022/01/31 09:13:34;;;;;;;9.30;1.63;;;8.20;99.90;;;;;;5066513;28;20045;-74
2022/01/31 09:16:00;;;;;;;3.00;0.45;;;8.90;99.90;;;;;;5061656;28;20122;-75
2022/01/31 09:18:29;;;;;;;4.47;1.60;;;7.90;99.90;;;;;;5076483;28;20658;-75
2022/01/31 09:20:57;;;;;;;5.00;2.00;;;8.80;99.90;;;;;;5071837;28;20127;-75
2022/01/31 09:23:23;;;;;;;4.88;1.05;;;7.80;99.90;;;;;;5072684;28;20111;-75
2022/01/31 09:25:50;;;;;;;5.63;1.50;;;8.50;99.90;;;;;;5054514;28;20040;-74
2022/01/31 09:28:23;;;;;;;0.90;0.70;;;8.10;99.90;;;;;;5056917;28;20041;-75
2022/01/31 09:30:51;;;;;;;4.65;1.67;;;7.90;99.90;;;;;;5070600;28;20495;-75
2022/01/31 09:33:26;;;;;;;2.53;0.88;;;7.90;99.90;;;;;;5066691;28;20132;-75
2022/01/31 09:35:54;;;;;;;1.85;0.77;;;8.10;99.90;;;;;;5068445;28;20049;-75
2022/01/31 09:38:24;;;;;;;6.50;1.02;;;8.00;99.90;;;;;;5073925;28;20048;-75
2022/01/31 09:40:55;;;;;;;1.85;1.02;;;8.20;99.90;;;;;;5049659;28;20500;-75
2022/01/31 09:46:45;;;;;;;1.88;0.98;;;8.40;99.90;;;;;;5072192;28;20043;-75
2022/01/31 09:48:41;;;;;;;4.25;1.63;;;7.20;99.90;;;;;;5052125;28;20052;-75
2022/01/31 09:51:10;;;;;;;3.20;0.70;;;8.00;99.90;;;;;;5052184;28;20128;-75
2022/01/31 09:53:51;;;;;;;4.65;1.95;;;8.40;99.90;;;;;;5040415;28;20099;-76
2022/01/31 09:56:29;;;;;;;8.18;1.30;;;8.50;99.90;;;;;;5042168;28;20063;-75
2022/01/31 09:59:05;;;;;;;4.57;1.83;;;8.10;99.90;;;;;;5050772;28;20095;-76
2022/01/31 10:01:51;;;;;;;2.60;1.75;;;8.20;99.90;;;;;;5034428;28;20591;-75
2022/01/31 10:04:20;;;;;;;13.50;3.00;;;6.20;99.90;;;;;;5034039;28;20103;-75
2022/01/31 10:06:54;;;;;;;3.75;1.17;;;8.20;99.90;;;;;;5040674;28;20549;-75
2022/01/31 10:09:29;;;;;;;3.28;1.85;;;8.40;99.90;;;;;;5059255;28;20134;-75
2022/01/31 10:16:25;;;;;;;9.00;2.05;;;8.20;99.90;;;;;;5041856;28;20136;-76
2022/01/31 10:18:08;;;;;;;7.50;2.17;;;8.60;99.90;;;;;;5061082;28;20612;-75
2022/01/31 10:20:40;;;;;;;1.25;0.95;;;8.80;99.90;;;;;;5060190;28;20037;-76
2022/01/31 10:23:12;;;;;;;3.40;1.27;;;8.20;99.90;;;;;;5061005;28;20041;-75
2022/01/31 10:25:42;;;;;;;5.13;1.07;;;8.50;99.90;;;;;;5056580;28;20037;-76
2022/01/31 10:28:45;;;;;;;6.93;2.35;;;8.70;99.90;;;;;;5039666;28;20132;-75
2022/01/31 10:31:19;;;;;;;10.40;3.50;;;11.40;99.90;;;;;;5040178;28;20179;-77
2022/01/31 10:34:24;;;;;;;2.28;0.95;;;9.70;99.90;;;;;;5059419;28;20044;-76
2022/01/31 10:36:51;;;;;;;9.55;1.88;;;9.10;99.90;;;;;;5042395;28;20089;-75
2022/01/31 10:45:33;;;;;;;2.03;1.15;;;9.20;99.90;;;;;;5062571;28;20074;-75
2022/01/31 10:54:00;;;;;;;25.23;5.57;;;9.70;99.90;;;;;;5055074;28;20056;-75
2022/01/31 10:56:55;;;;;;;5.28;2.17;;;9.20;99.90;;;;;;5049737;28;20084;-75
2022/01/31 10:59:33;;;;;;;2.40;1.20;;;10.20;99.90;;;;;;5040405;28;20071;-75
2022/01/31 11:02:08;;;;;;;3.63;1.08;;;9.90;99.90;;;;;;5030860;28;20085;-75
2022/01/31 11:04:36;;;;;;;6.85;1.95;;;9.30;99.90;;;;;;5032686;28;20189;-75
2022/01/31 11:07:10;;;;;;;4.55;2.35;;;9.60;99.90;;;;;;5043616;28;20506;-75
2022/01/31 11:09:37;;;;;;;2.72;1.70;;;9.20;99.90;;;;;;5051193;28;20449;-75
2022/01/31 11:12:05;;;;;;;4.18;2.05;;;9.80;99.90;;;;;;5052383;28;20094;-75
2022/01/31 11:14:35;;;;;;;7.53;2.65;;;10.30;99.90;;;;;;5031222;28;20042;-74
2022/01/31 11:17:10;;;;;;;5.53;2.70;;;10.00;99.90;;;;;;5025645;28;20048;-75
2022/01/31 11:19:41;;;;;;;7.38;4.43;;;9.60;99.90;;;;;;5024560;28;20044;-74
2022/01/31 11:22:10;;;;;;;9.07;2.00;;;9.60;99.90;;;;;;5038148;28;20071;-74
2022/01/31 11:24:58;;;;;;;10.98;2.92;;;9.50;99.90;;;;;;5032276;28;20517;-76
2022/01/31 11:27:42;;;;;;;5.30;1.52;;;9.50;99.90;;;;;;5028902;28;20180;-75
2022/01/31 11:30:09;;;;;;;8.95;2.95;;;9.40;99.90;;;;;;5035044;28;20053;-74
2022/01/31 11:32:50;;;;;;;6.43;2.38;;;9.90;99.90;;;;;;5032601;28;20608;-75
2022/01/31 11:35:16;;;;;;;12.43;3.93;;;8.80;99.90;;;;;;5028679;28;20037;-75
2022/01/31 11:37:42;;;;;;;3.97;1.80;;;10.50;99.90;;;;;;5047565;28;20519;-75
2022/01/31 11:40:11;;;;;;;7.88;2.55;;;9.40;99.90;;;;;;5048203;28;20037;-74
2022/01/31 11:42:42;;;;;;;6.88;2.13;;;10.80;99.90;;;;;;5032254;28;20056;-74
2022/01/31 11:45:26;;;;;;;2.70;0.93;;;10.10;99.90;;;;;;5051698;28;20048;-75
2022/01/31 11:47:57;;;;;;;1.48;0.70;;;10.00;99.90;;;;;;5060667;28;20056;-75
2022/01/31 11:50:24;;;;;;;2.83;1.45;;;9.90;99.90;;;;;;5055266;28;20040;-75
2022/01/31 11:53:00;;;;;;;1.05;0.73;;;8.30;99.90;;;;;;5074006;28;20044;-74
2022/01/31 11:55:31;;;;;;;3.33;0.90;;;9.70;99.90;;;;;;5056815;28;20516;-75
2022/01/31 11:57:58;;;;;;;4.35;1.38;;;9.50;99.90;;;;;;5067052;28;20041;-74
2022/01/31 12:00:29;;;;;;;5.03;1.75;;;9.20;99.90;;;;;;5053926;28;20119;-75
2022/01/31 12:03:09;;;;;;;2.83;2.15;;;10.00;99.90;;;;;;5059602;28;20139;-75
2022/01/31 12:05:41;;;;;;;1.65;1.23;;;10.50;99.90;;;;;;5054237;28;20086;-74
2022/01/31 12:08:15;;;;;;;10.50;2.22;;;10.60;99.90;;;;;;5072446;28;20055;-75
2022/01/31 12:10:44;;;;;;;3.22;1.50;;;10.20;99.90;;;;;;5041902;28;20055;-75
2022/01/31 12:13:55;;;;;;;9.45;1.58;;;11.10;99.90;;;;;;5050759;28;20085;-74
2022/01/31 12:19:33;;;;;;;6.88;2.50;;;11.10;99.90;;;;;;5066713;28;20052;-74
2022/01/31 12:22:04;;;;;;;4.38;1.35;;;10.10;99.90;;;;;;5077360;28;20392;-75
2022/01/31 12:24:45;;;;;;;10.15;1.73;;;9.80;99.90;;;;;;5057513;28;20045;-74
2022/01/31 12:27:17;;;;;;;2.90;1.58;;;10.10;99.90;;;;;;5056666;28;20153;-74
2022/01/31 12:29:50;;;;;;;11.43;4.70;;;11.20;99.90;;;;;;5047156;28;20511;-74
2022/01/31 12:32:34;;;;;;;3.53;1.38;;;10.10;99.90;;;;;;5052558;28;20439;-73
2022/01/31 12:35:08;;;;;;;4.80;2.45;;;10.60;99.90;;;;;;5056427;28;20041;-74
2022/01/31 12:37:37;;;;;;;6.38;1.60;;;10.50;99.90;;;;;;5074687;28;20523;-75
2022/01/31 12:40:08;;;;;;;4.82;1.45;;;10.20;99.90;;;;;;5060123;28;20401;-74
2022/01/31 12:42:54;;;;;;;7.45;2.30;;;10.10;99.90;;;;;;5068143;28;20076;-74
2022/01/31 12:45:49;;;;;;;6.60;2.00;;;10.10;99.90;;;;;;5089005;28;20048;-75
2022/01/31 12:48:23;;;;;;;8.85;3.95;;;9.70;99.90;;;;;;5072018;28;20474;-74
2022/01/31 12:50:48;;;;;;;11.73;2.63;;;8.50;99.90;;;;;;5091189;28;20068;-74
2022/01/31 12:53:42;;;;;;;8.20;2.00;;;9.60;99.90;;;;;;5064682;28;20139;-74
2022/01/31 12:56:20;;;;;;;6.85;3.20;;;9.60;99.90;;;;;;5073750;28;20380;-74
2022/01/31 12:59:12;;;;;;;4.65;1.90;;;9.90;99.90;;;;;;5085600;28;20047;-74
2022/01/31 13:01:46;;;;;;;4.57;1.98;;;9.60;99.90;;;;;;5087753;28;20635;-74
2022/01/31 13:04:22;;;;;;;4.28;1.60;;;10.40;99.90;;;;;;5066134;28;20128;-74
2022/01/31 13:06:58;;;;;;;7.30;2.60;;;9.60;99.90;;;;;;5067507;28;20048;-74
2022/01/31 13:09:37;;;;;;;8.07;2.17;;;9.70;99.90;;;;;;5075283;28;20553;-74
2022/01/31 13:12:25;;;;;;;10.27;3.75;;;9.80;99.90;;;;;;5086020;28;20040;-74
2022/01/31 13:14:52;;;;;;;7.50;1.92;;;9.80;99.90;;;;;;5072518;28;20057;-74
2022/01/31 13:17:21;;;;;;;3.92;1.95;;;9.30;99.90;;;;;;5048582;28;20488;-75
2022/01/31 13:19:53;;;;;;;5.28;1.77;;;9.70;99.90;;;;;;5058800;28;20681;-75
2022/01/31 13:22:39;;;;;;;3.13;1.52;;;9.40;99.90;;;;;;5063087;28;20114;-74
2022/01/31 13:25:11;;;;;;;4.90;1.90;;;9.40;99.90;;;;;;5070994;28;20132;-74
2022/01/31 13:27:47;;;;;;;2.47;1.50;;;9.80;99.90;;;;;;5059784;28;20051;-74
2022/01/31 13:30:22;;;;;;;4.38;1.90;;;9.90;99.90;;;;;;5073114;28;20044;-74
2022/01/31 13:32:48;;;;;;;3.80;1.60;;;8.40;99.90;;;;;;5052800;28;20373;-74
2022/01/31 13:35:23;;;;;;;2.65;0.90;;;9.20;99.90;;;;;;5059418;28;20076;-74
2022/01/31 13:37:52;;;;;;;1.88;1.17;;;9.10;99.90;;;;;;5079691;28;20040;-74
2022/01/31 13:40:33;;;;;;;2.67;0.80;;;9.50;99.90;;;;;;5058516;28;20501;-74
2022/01/31 13:43:00;;;;;;;7.45;2.05;;;9.80;99.90;;;;;;5056419;28;20617;-74
2022/01/31 13:45:47;;;;;;;4.57;1.38;;;9.60;99.90;;;;;;5056569;28;20056;-75
2022/01/31 13:48:27;;;;;;;1.85;1.23;;;9.80;99.90;;;;;;5063217;28;20049;-74
2022/01/31 13:50:58;;;;;;;5.35;1.65;;;9.50;99.90;;;;;;5056437;28;20044;-74
2022/01/31 13:53:36;;;;;;;8.25;2.03;;;8.80;99.90;;;;;;5053265;28;20609;-74
2022/01/31 13:56:06;;;;;;;3.75;2.05;;;9.60;99.90;;;;;;5056999;28;20059;-74
2022/01/31 13:58:34;;;;;;;4.40;1.85;;;9.40;99.90;;;;;;5059887;28;20045;-74
2022/01/31 14:01:01;;;;;;;6.10;1.95;;;9.50;99.90;;;;;;5059149;28;20091;-74
2022/01/31 14:03:30;;;;;;;3.92;1.35;;;9.80;99.90;;;;;;5057186;28;20074;-74
2022/01/31 14:06:02;;;;;;;3.25;1.98;;;9.70;99.90;;;;;;5078220;28;20552;-75
2022/01/31 14:08:36;;;;;;;;;;;9.60;99.90;;;;;;5056263;28;20045;-74
2022/01/31 14:11:10;;;;;;;3.67;1.30;;;9.70;99.90;;;;;;5059595;28;19928;-75
2022/01/31 14:13:38;;;;;;;5.43;1.75;;;10.50;99.90;;;;;;5054687;28;20045;-75
2022/01/31 14:16:05;;;;;;;4.03;1.90;;;9.60;99.90;;;;;;5054548;28;20076;-74
2022/01/31 14:18:34;;;;;;;4.72;1.50;;;10.10;99.90;;;;;;5071218;28;20099;-75
2022/01/31 14:21:08;;;;;;;4.10;2.25;;;9.20;99.90;;;;;;5079024;28;20472;-75
2022/01/31 14:23:39;;;;;;;9.50;2.13;;;10.80;99.90;;;;;;5073861;28;20037;-74
2022/01/31 14:26:07;;;;;;;3.03;1.95;;;9.90;99.90;;;;;;5068952;28;20126;-74
2022/01/31 14:28:44;;;;;;;2.30;1.35;;;9.70;99.90;;;;;;5048331;28;20041;-75
2022/01/31 14:31:13;;;;;;;3.53;1.83;;;9.90;99.90;;;;;;5052835;28;20419;-73
2022/01/31 14:33:47;;;;;;;8.60;2.47;;;10.30;99.90;;;;;;5073048;28;20037;-73
2022/01/31 14:36:16;;;;;;;4.43;2.03;;;9.40;99.90;;;;;;5079254;28;20056;-74
2022/01/31 14:47:18;;;;;;;4.30;0.68;;;8.70;99.20;;;;;;5075256;28;20057;-74
2022/01/31 14:49:50;;;;;;;0.90;0.60;;;9.00;99.40;;;;;;5060139;28;20075;-74
2022/01/31 14:52:16;;;;;;;2.05;0.68;;;9.80;99.80;;;;;;5064836;28;20525;-75
2022/01/31 14:54:43;;;;;;;2.45;0.55;;;9.10;99.80;;;;;;5054077;28;21004;-74
2022/01/31 14:57:10;;;;;;;1.90;0.75;;;9.10;99.20;;;;;;5061695;28;20065;-74
2022/01/31 14:59:37;;;;;;;2.35;1.23;;;9.10;99.20;;;;;;5053412;28;20041;-74
2022/01/31 15:02:03;;;;;;;2.65;1.50;;;9.10;99.20;;;;;;5054606;28;20047;-74
2022/01/31 15:04:30;;;;;;;1.92;1.23;;;9.00;99.40;;;;;;5073191;28;20041;-75
2022/01/31 15:06:59;;;;;;;5.63;1.40;;;9.00;99.90;;;;;;5045110;28;20045;-74
2022/01/31 15:09:24;;;;;;;9.07;1.95;;;9.60;99.90;;;;;;5059463;28;20067;-73
2022/01/31 15:11:50;;;;;;;5.07;1.70;;;8.90;99.90;;;;;;5052955;28;20037;-74
2022/01/31 15:14:18;;;;;;;2.63;1.45;;;8.50;99.90;;;;;;5059405;28;20459;-74
2022/01/31 15:16:47;;;;;;;3.05;1.45;;;8.80;99.90;;;;;;5066937;28;20107;-73
2022/01/31 15:19:15;;;;;;;2.30;1.48;;;8.70;99.90;;;;;;5071738;28;20047;-74
2022/01/31 15:21:41;;;;;;;6.97;1.45;;;8.60;99.90;;;;;;5061946;28;20028;-73
2022/01/31 15:24:08;;;;;;;0.60;0.52;;;8.30;99.90;;;;;;5072580;28;20559;-74
2022/01/31 15:26:35;;;;;;;4.95;0.95;;;8.60;99.90;;;;;;5056758;28;20048;-74
2022/01/31 15:29:02;;;;;;;1.77;0.45;;;8.60;99.90;;;;;;5059662;28;20037;-74
2022/01/31 15:31:30;;;;;;;1.65;1.10;;;8.60;99.90;;;;;;5070675;28;20127;-74
2022/01/31 15:33:59;;;;;;;3.08;0.80;;;8.60;99.90;;;;;;5052152;28;20033;-73
2022/01/31 15:36:28;;;;;;;2.00;0.50;;;8.50;99.90;;;;;;5042871;28;20093;-74
2022/01/31 15:38:54;;;;;;;7.53;1.38;;;8.50;99.90;;;;;;5055079;28;20191;-73
2022/01/31 15:41:20;;;;;;;6.90;0.85;;;8.50;99.90;;;;;;5059634;28;20048;-73
2022/01/31 15:43:48;;;;;;;13.05;1.45;;;8.60;99.90;;;;;;5050378;28;20141;-73
2022/01/31 15:46:14;;;;;;;5.57;1.05;;;8.50;99.90;;;;;;5045896;28;20115;-74
2022/01/31 15:48:40;;;;;;;1.30;0.60;;;8.80;99.90;;;;;;5030366;28;20049;-74
2022/01/31 15:51:06;;;;;;;1.85;0.73;;;8.50;99.90;;;;;;5041337;28;20501;-73
2022/01/31 15:53:32;;;;;;;1.08;0.85;;;8.50;99.90;;;;;;5042188;28;20108;-73
2022/01/31 15:55:58;;;;;;;3.13;0.55;;;8.50;99.90;;;;;;5052370;28;20037;-74
2022/01/31 15:58:24;;;;;;;2.55;0.77;;;8.40;99.90;;;;;;5069362;28;20049;-74
2022/01/31 16:00:51;;;;;;;3.75;0.98;;;8.50;99.90;;;;;;5054204;28;20037;-74
2022/01/31 16:03:20;;;;;;;2.17;1.02;;;8.80;99.90;;;;;;5053688;28;20037;-74
2022/01/31 16:05:47;;;;;;;3.53;1.48;;;8.60;99.90;;;;;;5054892;28;20038;-73
2022/01/31 16:08:19;;;;;;;3.92;1.25;;;8.50;99.90;;;;;;5051455;28;20044;-74
2022/01/31 16:10:48;;;;;;;1.75;0.40;;;9.80;99.90;;;;;;5055855;28;20136;-74
2022/01/31 16:13:20;;;;;;;1.38;0.65;;;8.40;99.90;;;;;;5040441;28;20120;-74
2022/01/31 16:15:50;;;;;;;6.07;1.40;;;8.40;99.90;;;;;;5052591;28;20899;-74
2022/01/31 16:18:19;;;;;;;1.98;1.73;;;8.50;99.90;;;;;;5057724;28;20060;-74